sensor_id;sensor_type;location;lat;lon;timestamp;P1;durP1;ratioP1;P2;durP2;ratioP2
36629;SDS011;36256;42.154;23.002;2022-12-11T07:55:13;20.50;;;6.75;;
36629;SDS011;36256;42.154;23.002;2022-12-11T07:57:39;17.35;;;8.45;;
36629;SDS011;36256;42.154;23.002;2022-12-11T08:00:06;16.35;;;7.25;;
36629;SDS011;36256;42.154;23.002;2022-12-11T08:05:02;11.75;;;4.05;;
36629;SDS011;36256;42.154;23.002;2022-12-11T08:07:29;9.60;;;3.08;;
36629;SDS011;36256;42.154;23.002;2022-12-11T08:09:56;12.83;;;3.80;;
36629;SDS011;36256;42.154;23.002;2022-12-11T08:12:22;9.40;;;3.27;;
36629;SDS011;36256;42.154;23.002;2022-12-11T08:14:49;8.73;;;2.47;;
36629;SDS011;36256;42.154;23.002;2022-12-11T08:17:16;10.13;;;2.40;;
36629;SDS011;36256;42.154;23.002;2022-12-11T08:19:42;5.70;;;1.70;;
36629;SDS011;36256;42.154;23.002;2022-12-11T08:22:09;4.73;;;1.80;;
36629;SDS011;36256;42.154;23.002;2022-12-11T08:24:35;6.97;;;1.95;;
36629;SDS011;36256;42.154;23.002;2022-12-11T08:27:02;4.87;;;1.73;;
36629;SDS011;36256;42.154;23.002;2022-12-11T08:29:28;5.07;;;1.90;;
36629;SDS011;36256;42.154;23.002;2022-12-11T08:31:55;3.93;;;1.90;;
36629;SDS011;36256;42.154;23.002;2022-12-11T08:34:22;7.60;;;2.25;;
36629;SDS011;36256;42.154;23.002;2022-12-11T08:36:48;5.38;;;2.05;;
36629;SDS011;36256;42.154;23.002;2022-12-11T08:39:15;7.37;;;2.73;;
36629;SDS011;36256;42.154;23.002;2022-12-11T08:41:42;12.93;;;3.70;;
36629;SDS011;36256;42.154;23.002;2022-12-11T08:44:11;9.50;;;3.50;;
36629;SDS011;36256;42.154;23.002;2022-12-11T08:46:41;28.67;;;15.38;;
36629;SDS011;36256;42.154;23.002;2022-12-11T08:49:08;8.43;;;4.63;;
36629;SDS011;36256;42.154;23.002;2022-12-11T08:51:35;7.32;;;2.72;;
36629;SDS011;36256;42.154;23.002;2022-12-11T08:54:02;5.78;;;2.30;;
36629;SDS011;36256;42.154;23.002;2022-12-11T08:56:29;7.40;;;2.47;;
36629;SDS011;36256;42.154;23.002;2022-12-11T08:58:58;4.97;;;2.13;;
36629;SDS011;36256;42.154;23.002;2022-12-11T09:01:26;5.75;;;2.10;;
36629;SDS011;36256;42.154;23.002;2022-12-11T09:03:54;5.03;;;2.05;;
36629;SDS011;36256;42.154;23.002;2022-12-11T09:06:22;6.45;;;2.00;;
36629;SDS011;36256;42.154;23.002;2022-12-11T09:08:51;6.63;;;2.00;;
36629;SDS011;36256;42.154;23.002;2022-12-11T09:11:20;6.47;;;1.77;;
36629;SDS011;36256;42.154;23.002;2022-12-11T09:13:49;8.27;;;2.10;;
36629;SDS011;36256;42.154;23.002;2022-12-11T09:16:17;5.90;;;2.30;;
36629;SDS011;36256;42.154;23.002;2022-12-11T09:18:45;6.63;;;1.63;;
36629;SDS011;36256;42.154;23.002;2022-12-11T09:21:14;6.72;;;1.67;;
36629;SDS011;36256;42.154;23.002;2022-12-11T09:23:42;6.75;;;1.92;;
36629;SDS011;36256;42.154;23.002;2022-12-11T09:26:10;6.13;;;2.17;;
36629;SDS011;36256;42.154;23.002;2022-12-11T09:28:39;6.88;;;1.90;;
36629;SDS011;36256;42.154;23.002;2022-12-11T09:31:16;7.38;;;1.73;;
36629;SDS011;36256;42.154;23.002;2022-12-11T09:33:49;7.15;;;1.70;;
36629;SDS011;36256;42.154;23.002;2022-12-11T09:36:17;4.78;;;1.67;;
36629;SDS011;36256;42.154;23.002;2022-12-11T09:38:44;3.97;;;1.80;;
36629;SDS011;36256;42.154;23.002;2022-12-11T09:46:41;7.30;;;2.03;;
36629;SDS011;36256;42.154;23.002;2022-12-11T09:49:16;5.53;;;2.45;;
36629;SDS011;36256;42.154;23.002;2022-12-11T09:52:34;4.20;;;1.60;;
36629;SDS011;36256;42.154;23.002;2022-12-11T09:55:01;12.70;;;6.82;;
36629;SDS011;36256;42.154;23.002;2022-12-11T09:57:41;10.40;;;4.30;;
36629;SDS011;36256;42.154;23.002;2022-12-11T10:08:27;3.05;;;1.50;;
36629;SDS011;36256;42.154;23.002;2022-12-11T10:16:58;6.03;;;2.00;;
36629;SDS011;36256;42.154;23.002;2022-12-11T10:19:30;5.78;;;2.05;;
36629;SDS011;36256;42.154;23.002;2022-12-11T10:21:58;6.43;;;2.92;;
36629;SDS011;36256;42.154;23.002;2022-12-11T10:25:12;5.57;;;2.50;;
36629;SDS011;36256;42.154;23.002;2022-12-11T10:27:38;5.30;;;2.25;;
36629;SDS011;36256;42.154;23.002;2022-12-11T10:30:12;6.72;;;2.30;;
36629;SDS011;36256;42.154;23.002;2022-12-11T10:32:51;3.90;;;1.92;;
36629;SDS011;36256;42.154;23.002;2022-12-11T10:35:39;5.30;;;1.92;;
36629;SDS011;36256;42.154;23.002;2022-12-11T10:38:12;8.55;;;2.42;;
36629;SDS011;36256;42.154;23.002;2022-12-11T10:40:40;7.40;;;2.85;;
36629;SDS011;36256;42.154;23.002;2022-12-11T10:43:10;4.30;;;1.85;;
36629;SDS011;36256;42.154;23.002;2022-12-11T10:45:37;6.43;;;2.85;;
36629;SDS011;36256;42.154;23.002;2022-12-11T10:48:10;22.05;;;13.02;;
36629;SDS011;36256;42.154;23.002;2022-12-11T10:50:37;4.53;;;1.88;;
36629;SDS011;36256;42.154;23.002;2022-12-11T10:55:43;5.03;;;1.92;;
36629;SDS011;36256;42.154;23.002;2022-12-11T10:58:12;7.30;;;2.40;;
36629;SDS011;36256;42.154;23.002;2022-12-11T11:00:45;4.88;;;2.00;;
36629;SDS011;36256;42.154;23.002;2022-12-11T11:03:25;7.63;;;2.25;;
36629;SDS011;36256;42.154;23.002;2022-12-11T11:06:03;6.95;;;2.47;;
36629;SDS011;36256;42.154;23.002;2022-12-11T11:08:50;10.07;;;3.23;;
36629;SDS011;36256;42.154;23.002;2022-12-11T11:11:20;10.13;;;4.10;;
36629;SDS011;36256;42.154;23.002;2022-12-11T11:16:34;8.18;;;4.53;;
36629;SDS011;36256;42.154;23.002;2022-12-11T11:19:02;7.95;;;3.88;;
36629;SDS011;36256;42.154;23.002;2022-12-11T11:21:30;5.00;;;2.00;;
36629;SDS011;36256;42.154;23.002;2022-12-11T11:23:59;6.32;;;3.08;;
36629;SDS011;36256;42.154;23.002;2022-12-11T11:26:25;6.35;;;1.83;;
36629;SDS011;36256;42.154;23.002;2022-12-11T11:29:27;6.07;;;2.33;;
36629;SDS011;36256;42.154;23.002;2022-12-11T11:32:01;6.95;;;2.15;;
36629;SDS011;36256;42.154;23.002;2022-12-11T11:34:40;4.80;;;1.90;;
36629;SDS011;36256;42.154;23.002;2022-12-11T11:37:21;3.50;;;1.73;;
36629;SDS011;36256;42.154;23.002;2022-12-11T11:39:56;7.20;;;2.33;;
36629;SDS011;36256;42.154;23.002;2022-12-11T11:43:02;5.00;;;1.85;;
36629;SDS011;36256;42.154;23.002;2022-12-11T11:45:52;9.73;;;2.55;;
36629;SDS011;36256;42.154;23.002;2022-12-11T11:54:02;11.25;;;6.10;;
36629;SDS011;36256;42.154;23.002;2022-12-11T11:56:40;8.73;;;4.20;;
36629;SDS011;36256;42.154;23.002;2022-12-11T11:59:18;6.10;;;1.98;;
36629;SDS011;36256;42.154;23.002;2022-12-11T12:01:57;9.07;;;3.60;;
36629;SDS011;36256;42.154;23.002;2022-12-11T12:04:30;9.75;;;3.08;;
36629;SDS011;36256;42.154;23.002;2022-12-11T12:07:06;7.72;;;3.30;;
36629;SDS011;36256;42.154;23.002;2022-12-11T12:14:38;5.75;;;2.28;;
36629;SDS011;36256;42.154;23.002;2022-12-11T12:17:31;5.60;;;2.08;;
36629;SDS011;36256;42.154;23.002;2022-12-11T12:20:40;7.20;;;2.10;;
36629;SDS011;36256;42.154;23.002;2022-12-11T12:23:06;7.32;;;1.80;;
36629;SDS011;36256;42.154;23.002;2022-12-11T12:25:42;6.00;;;2.27;;
36629;SDS011;36256;42.154;23.002;2022-12-11T12:35:56;6.65;;;2.25;;
36629;SDS011;36256;42.154;23.002;2022-12-11T12:42:02;15.35;;;7.07;;
36629;SDS011;36256;42.154;23.002;2022-12-11T12:44:14;11.43;;;6.63;;
36629;SDS011;36256;42.154;23.002;2022-12-11T12:52:04;8.40;;;4.95;;
36629;SDS011;36256;42.154;23.002;2022-12-11T12:54:35;6.20;;;2.15;;
36629;SDS011;36256;42.154;23.002;2022-12-11T12:57:03;9.15;;;3.78;;
36629;SDS011;36256;42.154;23.002;2022-12-11T12:59:30;10.27;;;3.22;;
36629;SDS011;36256;42.154;23.002;2022-12-11T13:01:58;4.63;;;1.90;;
36629;SDS011;36256;42.154;23.002;2022-12-11T13:04:37;3.42;;;0.80;;
36629;SDS011;36256;42.154;23.002;2022-12-11T13:07:24;3.15;;;1.85;;
36629;SDS011;36256;42.154;23.002;2022-12-11T13:09:55;4.78;;;2.35;;
36629;SDS011;36256;42.154;23.002;2022-12-11T13:12:42;2.70;;;0.93;;
36629;SDS011;36256;42.154;23.002;2022-12-11T13:18:01;6.50;;;3.83;;
36629;SDS011;36256;42.154;23.002;2022-12-11T13:20:31;5.80;;;2.85;;
36629;SDS011;36256;42.154;23.002;2022-12-11T13:25:26;3.97;;;2.20;;
36629;SDS011;36256;42.154;23.002;2022-12-11T13:28:18;8.02;;;3.72;;
36629;SDS011;36256;42.154;23.002;2022-12-11T13:31:00;4.80;;;2.40;;
36629;SDS011;36256;42.154;23.002;2022-12-11T13:33:43;7.97;;;4.10;;
36629;SDS011;36256;42.154;23.002;2022-12-11T13:38:49;7.22;;;3.30;;
36629;SDS011;36256;42.154;23.002;2022-12-11T13:41:22;7.30;;;3.95;;
36629;SDS011;36256;42.154;23.002;2022-12-11T13:43:49;5.35;;;3.67;;
36629;SDS011;36256;42.154;23.002;2022-12-11T13:46:26;3.38;;;1.85;;
36629;SDS011;36256;42.154;23.002;2022-12-11T13:48:58;3.38;;;2.33;;
36629;SDS011;36256;42.154;23.002;2022-12-11T13:51:29;5.38;;;2.72;;
36629;SDS011;36256;42.154;23.002;2022-12-11T13:54:01;4.45;;;2.53;;
36629;SDS011;36256;42.154;23.002;2022-12-11T13:59:32;4.05;;;2.30;;
36629;SDS011;36256;42.154;23.002;2022-12-11T14:02:43;5.18;;;2.53;;
36629;SDS011;36256;42.154;23.002;2022-12-11T14:04:55;10.07;;;4.25;;
36629;SDS011;36256;42.154;23.002;2022-12-11T14:07:28;8.07;;;3.70;;
36629;SDS011;36256;42.154;23.002;2022-12-11T14:10:02;7.30;;;3.83;;
36629;SDS011;36256;42.154;23.002;2022-12-11T14:12:33;7.47;;;3.70;;
36629;SDS011;36256;42.154;23.002;2022-12-11T14:15:02;8.30;;;3.63;;
36629;SDS011;36256;42.154;23.002;2022-12-11T14:17:31;8.40;;;5.40;;
36629;SDS011;36256;42.154;23.002;2022-12-11T14:20:00;7.35;;;4.75;;
36629;SDS011;36256;42.154;23.002;2022-12-11T14:22:32;11.68;;;7.35;;
36629;SDS011;36256;42.154;23.002;2022-12-11T14:25:00;10.32;;;6.07;;
36629;SDS011;36256;42.154;23.002;2022-12-11T14:27:29;9.85;;;6.22;;
36629;SDS011;36256;42.154;23.002;2022-12-11T14:29:56;15.75;;;8.95;;
36629;SDS011;36256;42.154;23.002;2022-12-11T14:32:33;34.27;;;18.03;;
36629;SDS011;36256;42.154;23.002;2022-12-11T14:35:04;5.90;;;3.50;;
36629;SDS011;36256;42.154;23.002;2022-12-11T14:37:33;11.35;;;7.65;;
36629;SDS011;36256;42.154;23.002;2022-12-11T14:40:06;7.45;;;3.80;;
36629;SDS011;36256;42.154;23.002;2022-12-11T14:42:48;9.82;;;6.00;;
36629;SDS011;36256;42.154;23.002;2022-12-11T14:47:54;5.57;;;3.78;;
36629;SDS011;36256;42.154;23.002;2022-12-11T14:50:29;6.35;;;4.13;;
36629;SDS011;36256;42.154;23.002;2022-12-11T14:53:14;6.28;;;3.90;;
36629;SDS011;36256;42.154;23.002;2022-12-11T14:55:48;5.03;;;3.28;;
36629;SDS011;36256;42.154;23.002;2022-12-11T14:58:16;6.07;;;4.55;;
36629;SDS011;36256;42.154;23.002;2022-12-11T15:00:58;4.45;;;2.95;;
36629;SDS011;36256;42.154;23.002;2022-12-11T15:03:44;5.18;;;3.10;;
36629;SDS011;36256;42.154;23.002;2022-12-11T15:06:24;5.30;;;3.80;;
36629;SDS011;36256;42.154;23.002;2022-12-11T15:08:54;6.82;;;4.65;;
36629;SDS011;36256;42.154;23.002;2022-12-11T15:11:21;8.23;;;5.10;;
36629;SDS011;36256;42.154;23.002;2022-12-11T15:13:57;26.13;;;14.90;;
36629;SDS011;36256;42.154;23.002;2022-12-11T15:16:26;19.00;;;12.40;;
36629;SDS011;36256;42.154;23.002;2022-12-11T15:18:57;12.80;;;5.90;;
36629;SDS011;36256;42.154;23.002;2022-12-11T15:21:28;12.63;;;6.38;;
36629;SDS011;36256;42.154;23.002;2022-12-11T15:23:57;9.27;;;4.45;;
36629;SDS011;36256;42.154;23.002;2022-12-11T15:26:33;7.60;;;5.28;;
36629;SDS011;36256;42.154;23.002;2022-12-11T15:29:04;9.60;;;5.00;;
36629;SDS011;36256;42.154;23.002;2022-12-11T15:31:33;6.47;;;3.33;;
36629;SDS011;36256;42.154;23.002;2022-12-11T15:34:02;6.05;;;3.05;;
36629;SDS011;36256;42.154;23.002;2022-12-11T15:36:47;4.60;;;3.00;;
36629;SDS011;36256;42.154;23.002;2022-12-11T15:39:13;8.15;;;3.80;;
36629;SDS011;36256;42.154;23.002;2022-12-11T15:41:40;13.43;;;10.30;;
36629;SDS011;36256;42.154;23.002;2022-12-11T15:44:10;19.80;;;11.30;;
36629;SDS011;36256;42.154;23.002;2022-12-11T15:46:44;13.27;;;7.90;;
36629;SDS011;36256;42.154;23.002;2022-12-11T15:49:11;12.32;;;8.05;;
36629;SDS011;36256;42.154;23.002;2022-12-11T15:51:38;10.07;;;8.05;;
36629;SDS011;36256;42.154;23.002;2022-12-11T15:54:08;11.30;;;7.70;;
36629;SDS011;36256;42.154;23.002;2022-12-11T15:56:35;16.73;;;11.82;;
36629;SDS011;36256;42.154;23.002;2022-12-11T15:59:02;16.20;;;10.90;;
36629;SDS011;36256;42.154;23.002;2022-12-11T16:01:32;15.52;;;9.27;;
36629;SDS011;36256;42.154;23.002;2022-12-11T16:03:58;15.52;;;9.98;;
36629;SDS011;36256;42.154;23.002;2022-12-11T16:06:30;13.73;;;8.38;;
36629;SDS011;36256;42.154;23.002;2022-12-11T16:08:57;9.75;;;5.35;;
36629;SDS011;36256;42.154;23.002;2022-12-11T16:11:23;10.13;;;7.47;;
36629;SDS011;36256;42.154;23.002;2022-12-11T16:13:50;11.30;;;8.20;;
36629;SDS011;36256;42.154;23.002;2022-12-11T16:16:16;17.23;;;12.23;;
36629;SDS011;36256;42.154;23.002;2022-12-11T16:18:43;3.28;;;1.40;;
36629;SDS011;36256;42.154;23.002;2022-12-11T16:21:09;2.53;;;1.73;;
36629;SDS011;36256;42.154;23.002;2022-12-11T16:23:40;2.13;;;1.42;;
36629;SDS011;36256;42.154;23.002;2022-12-11T16:26:07;2.13;;;1.50;;
36629;SDS011;36256;42.154;23.002;2022-12-11T16:28:34;3.78;;;1.40;;
36629;SDS011;36256;42.154;23.002;2022-12-11T16:31:01;2.67;;;1.83;;
36629;SDS011;36256;42.154;23.002;2022-12-11T16:35:55;1.98;;;1.38;;
36629;SDS011;36256;42.154;23.002;2022-12-11T16:38:22;1.75;;;1.40;;
36629;SDS011;36256;42.154;23.002;2022-12-11T16:40:57;3.27;;;1.10;;
36629;SDS011;36256;42.154;23.002;2022-12-11T16:43:25;1.88;;;1.08;;
36629;SDS011;36256;42.154;23.002;2022-12-11T16:45:54;2.08;;;1.15;;
36629;SDS011;36256;42.154;23.002;2022-12-11T16:48:21;2.40;;;1.15;;
36629;SDS011;36256;42.154;23.002;2022-12-11T16:50:48;1.45;;;0.90;;
36629;SDS011;36256;42.154;23.002;2022-12-11T16:53:17;2.55;;;1.60;;
36629;SDS011;36256;42.154;23.002;2022-12-11T16:55:44;1.90;;;1.07;;
36629;SDS011;36256;42.154;23.002;2022-12-11T16:58:10;1.70;;;1.05;;
36629;SDS011;36256;42.154;23.002;2022-12-11T17:00:41;1.33;;;0.93;;
36629;SDS011;36256;42.154;23.002;2022-12-11T17:03:08;2.17;;;1.63;;
36629;SDS011;36256;42.154;23.002;2022-12-11T17:05:37;2.78;;;1.52;;
36629;SDS011;36256;42.154;23.002;2022-12-11T17:08:04;4.28;;;1.67;;
36629;SDS011;36256;42.154;23.002;2022-12-11T17:10:31;4.07;;;1.48;;
36629;SDS011;36256;42.154;23.002;2022-12-11T17:12:58;5.45;;;1.70;;
36629;SDS011;36256;42.154;23.002;2022-12-11T17:15:25;6.10;;;2.00;;
36629;SDS011;36256;42.154;23.002;2022-12-11T17:17:52;7.28;;;2.22;;
36629;SDS011;36256;42.154;23.002;2022-12-11T17:20:19;5.00;;;2.38;;
36629;SDS011;36256;42.154;23.002;2022-12-11T17:22:45;4.95;;;2.28;;
36629;SDS011;36256;42.154;23.002;2022-12-11T17:25:12;5.47;;;2.30;;
36629;SDS011;36256;42.154;23.002;2022-12-11T17:27:41;5.20;;;2.08;;
36629;SDS011;36256;42.154;23.002;2022-12-11T17:30:08;4.13;;;2.40;;
36629;SDS011;36256;42.154;23.002;2022-12-11T17:32:35;5.72;;;2.20;;
36629;SDS011;36256;42.154;23.002;2022-12-11T17:35:02;4.10;;;2.10;;
36629;SDS011;36256;42.154;23.002;2022-12-11T17:37:29;4.20;;;1.92;;
36629;SDS011;36256;42.154;23.002;2022-12-11T17:39:55;4.82;;;2.40;;
36629;SDS011;36256;42.154;23.002;2022-12-11T17:42:22;6.50;;;3.77;;
36629;SDS011;36256;42.154;23.002;2022-12-11T17:44:48;9.82;;;4.32;;
36629;SDS011;36256;42.154;23.002;2022-12-11T17:47:15;8.07;;;3.50;;
36629;SDS011;36256;42.154;23.002;2022-12-11T17:49:42;20.90;;;14.88;;
36629;SDS011;36256;42.154;23.002;2022-12-11T17:52:08;6.55;;;2.72;;
36629;SDS011;36256;42.154;23.002;2022-12-11T17:54:35;3.80;;;2.00;;
36629;SDS011;36256;42.154;23.002;2022-12-11T17:57:02;5.05;;;2.35;;
36629;SDS011;36256;42.154;23.002;2022-12-11T17:59:28;5.57;;;2.20;;
36629;SDS011;36256;42.154;23.002;2022-12-11T18:01:55;12.18;;;1.83;;
36629;SDS011;36256;42.154;23.002;2022-12-11T18:06:49;15.35;;;2.63;;
36629;SDS011;36256;42.154;23.002;2022-12-11T18:09:16;12.23;;;3.13;;
36629;SDS011;36256;42.154;23.002;2022-12-11T18:11:42;13.45;;;2.85;;
36629;SDS011;36256;42.154;23.002;2022-12-11T18:14:09;6.57;;;2.83;;
36629;SDS011;36256;42.154;23.002;2022-12-11T18:16:42;13.43;;;2.90;;
36629;SDS011;36256;42.154;23.002;2022-12-11T18:19:08;6.17;;;2.37;;
36629;SDS011;36256;42.154;23.002;2022-12-11T18:21:36;7.93;;;1.83;;
36629;SDS011;36256;42.154;23.002;2022-12-11T18:24:06;7.10;;;2.13;;
36629;SDS011;36256;42.154;23.002;2022-12-11T18:26:34;10.57;;;2.00;;
36629;SDS011;36256;42.154;23.002;2022-12-11T18:29:02;7.90;;;1.70;;
36629;SDS011;36256;42.154;23.002;2022-12-11T18:33:56;9.07;;;2.05;;
36629;SDS011;36256;42.154;23.002;2022-12-11T18:36:23;12.55;;;2.45;;
36629;SDS011;36256;42.154;23.002;2022-12-11T18:38:50;10.60;;;1.73;;
36629;SDS011;36256;42.154;23.002;2022-12-11T18:41:17;10.77;;;1.80;;
36629;SDS011;36256;42.154;23.002;2022-12-11T18:43:44;13.43;;;1.70;;
36629;SDS011;36256;42.154;23.002;2022-12-11T18:46:12;10.95;;;1.73;;
36629;SDS011;36256;42.154;23.002;2022-12-11T18:48:41;14.07;;;3.70;;
36629;SDS011;36256;42.154;23.002;2022-12-11T18:51:10;13.27;;;6.20;;
36629;SDS011;36256;42.154;23.002;2022-12-11T18:53:39;10.02;;;4.75;;
36629;SDS011;36256;42.154;23.002;2022-12-11T18:56:06;14.45;;;3.95;;
36629;SDS011;36256;42.154;23.002;2022-12-11T18:58:35;16.90;;;3.92;;
36629;SDS011;36256;42.154;23.002;2022-12-11T19:01:09;15.20;;;3.72;;
36629;SDS011;36256;42.154;23.002;2022-12-11T19:03:39;16.67;;;4.25;;
36629;SDS011;36256;42.154;23.002;2022-12-11T19:06:10;14.85;;;4.18;;
36629;SDS011;36256;42.154;23.002;2022-12-11T19:08:38;11.02;;;4.68;;
36629;SDS011;36256;42.154;23.002;2022-12-11T19:11:05;15.70;;;5.10;;
36629;SDS011;36256;42.154;23.002;2022-12-11T19:13:33;16.08;;;5.03;;
36629;SDS011;36256;42.154;23.002;2022-12-11T19:16:00;14.32;;;6.15;;
36629;SDS011;36256;42.154;23.002;2022-12-11T19:18:27;20.92;;;6.00;;
36629;SDS011;36256;42.154;23.002;2022-12-11T19:20:53;12.73;;;6.22;;
36629;SDS011;36256;42.154;23.002;2022-12-11T19:23:33;17.50;;;5.20;;
36629;SDS011;36256;42.154;23.002;2022-12-11T19:26:00;21.95;;;4.75;;
36629;SDS011;36256;42.154;23.002;2022-12-11T19:28:27;22.67;;;7.43;;
36629;SDS011;36256;42.154;23.002;2022-12-11T19:30:54;28.25;;;7.28;;
36629;SDS011;36256;42.154;23.002;2022-12-11T19:33:21;21.35;;;6.60;;
36629;SDS011;36256;42.154;23.002;2022-12-11T19:35:47;15.90;;;3.50;;
36629;SDS011;36256;42.154;23.002;2022-12-11T19:38:14;11.90;;;4.53;;
36629;SDS011;36256;42.154;23.002;2022-12-11T19:40:41;10.52;;;5.93;;
36629;SDS011;36256;42.154;23.002;2022-12-11T19:43:09;14.65;;;5.85;;
36629;SDS011;36256;42.154;23.002;2022-12-11T19:45:36;14.63;;;5.10;;
36629;SDS011;36256;42.154;23.002;2022-12-11T19:48:02;10.57;;;4.38;;
36629;SDS011;36256;42.154;23.002;2022-12-11T19:50:29;11.35;;;3.88;;
36629;SDS011;36256;42.154;23.002;2022-12-11T19:52:56;12.20;;;4.67;;
36629;SDS011;36256;42.154;23.002;2022-12-11T19:55:23;12.60;;;5.37;;
36629;SDS011;36256;42.154;23.002;2022-12-11T19:57:49;11.60;;;5.00;;
36629;SDS011;36256;42.154;23.002;2022-12-11T20:00:16;16.67;;;5.17;;
36629;SDS011;36256;42.154;23.002;2022-12-11T20:02:44;35.40;;;19.75;;
36629;SDS011;36256;42.154;23.002;2022-12-11T20:05:10;19.73;;;8.82;;
36629;SDS011;36256;42.154;23.002;2022-12-11T20:07:38;18.10;;;5.10;;
36629;SDS011;36256;42.154;23.002;2022-12-11T20:10:05;15.35;;;4.28;;
36629;SDS011;36256;42.154;23.002;2022-12-11T20:12:32;16.08;;;4.68;;
36629;SDS011;36256;42.154;23.002;2022-12-11T20:14:58;12.25;;;4.38;;
36629;SDS011;36256;42.154;23.002;2022-12-11T20:17:25;20.42;;;6.95;;
36629;SDS011;36256;42.154;23.002;2022-12-11T20:19:52;16.85;;;5.82;;
36629;SDS011;36256;42.154;23.002;2022-12-11T20:22:18;19.03;;;5.83;;
36629;SDS011;36256;42.154;23.002;2022-12-11T20:24:45;14.27;;;6.63;;
36629;SDS011;36256;42.154;23.002;2022-12-11T20:27:11;19.33;;;7.43;;
36629;SDS011;36256;42.154;23.002;2022-12-11T20:29:38;17.70;;;6.55;;
36629;SDS011;36256;42.154;23.002;2022-12-11T20:32:05;18.98;;;4.68;;
36629;SDS011;36256;42.154;23.002;2022-12-11T20:36:59;15.90;;;3.70;;
36629;SDS011;36256;42.154;23.002;2022-12-11T20:39:25;18.27;;;3.70;;
36629;SDS011;36256;42.154;23.002;2022-12-11T20:41:52;16.67;;;3.42;;
36629;SDS011;36256;42.154;23.002;2022-12-11T20:44:19;17.23;;;3.57;;
36629;SDS011;36256;42.154;23.002;2022-12-11T20:46:45;15.82;;;3.53;;
36629;SDS011;36256;42.154;23.002;2022-12-11T20:49:12;18.30;;;4.10;;
36629;SDS011;36256;42.154;23.002;2022-12-11T20:51:39;6.45;;;3.00;;
36629;SDS011;36256;42.154;23.002;2022-12-11T20:54:06;11.13;;;3.22;;
36629;SDS011;36256;42.154;23.002;2022-12-11T20:56:32;12.60;;;3.45;;
36629;SDS011;36256;42.154;23.002;2022-12-11T20:58:59;7.43;;;3.10;;
36629;SDS011;36256;42.154;23.002;2022-12-11T21:01:27;8.73;;;2.85;;
36629;SDS011;36256;42.154;23.002;2022-12-11T21:03:56;8.75;;;3.10;;
36629;SDS011;36256;42.154;23.002;2022-12-11T21:06:25;10.05;;;3.10;;
36629;SDS011;36256;42.154;23.002;2022-12-11T21:09:01;11.80;;;3.22;;
36629;SDS011;36256;42.154;23.002;2022-12-11T21:11:31;8.15;;;2.42;;
36629;SDS011;36256;42.154;23.002;2022-12-11T21:13:58;9.88;;;3.03;;
36629;SDS011;36256;42.154;23.002;2022-12-11T21:16:25;6.30;;;2.75;;
36629;SDS011;36256;42.154;23.002;2022-12-11T21:18:52;7.32;;;3.00;;
36629;SDS011;36256;42.154;23.002;2022-12-11T21:21:20;12.65;;;3.40;;
36629;SDS011;36256;42.154;23.002;2022-12-11T21:23:46;9.38;;;2.05;;
36629;SDS011;36256;42.154;23.002;2022-12-11T21:26:13;6.67;;;2.43;;
36629;SDS011;36256;42.154;23.002;2022-12-11T21:28:40;6.10;;;2.22;;
36629;SDS011;36256;42.154;23.002;2022-12-11T21:31:08;2.20;;;1.38;;
36629;SDS011;36256;42.154;23.002;2022-12-11T21:33:37;12.00;;;3.03;;
36629;SDS011;36256;42.154;23.002;2022-12-11T21:36:04;4.50;;;2.22;;
36629;SDS011;36256;42.154;23.002;2022-12-11T21:38:32;6.30;;;3.10;;
36629;SDS011;36256;42.154;23.002;2022-12-11T21:41:05;4.55;;;2.38;;
36629;SDS011;36256;42.154;23.002;2022-12-11T21:43:44;5.22;;;2.40;;
36629;SDS011;36256;42.154;23.002;2022-12-11T21:46:31;6.20;;;2.63;;
36629;SDS011;36256;42.154;23.002;2022-12-11T21:48:58;6.68;;;2.60;;
36629;SDS011;36256;42.154;23.002;2022-12-11T21:51:26;6.53;;;3.28;;
36629;SDS011;36256;42.154;23.002;2022-12-11T21:54:02;4.35;;;2.20;;
36629;SDS011;36256;42.154;23.002;2022-12-11T21:56:30;6.10;;;2.38;;
36629;SDS011;36256;42.154;23.002;2022-12-11T21:58:57;6.72;;;2.70;;
36629;SDS011;36256;42.154;23.002;2022-12-11T22:01:24;6.93;;;3.22;;
36629;SDS011;36256;42.154;23.002;2022-12-11T22:03:56;6.88;;;2.67;;
36629;SDS011;36256;42.154;23.002;2022-12-11T22:06:23;6.10;;;2.60;;
36629;SDS011;36256;42.154;23.002;2022-12-11T22:08:50;6.25;;;2.67;;
36629;SDS011;36256;42.154;23.002;2022-12-11T22:11:21;4.70;;;2.50;;
36629;SDS011;36256;42.154;23.002;2022-12-11T22:13:49;6.03;;;2.47;;
36629;SDS011;36256;42.154;23.002;2022-12-11T22:16:16;6.70;;;2.67;;
36629;SDS011;36256;42.154;23.002;2022-12-11T22:18:43;5.70;;;2.78;;
36629;SDS011;36256;42.154;23.002;2022-12-11T22:21:10;6.20;;;2.50;;
36629;SDS011;36256;42.154;23.002;2022-12-11T22:23:37;6.57;;;2.53;;
36629;SDS011;36256;42.154;23.002;2022-12-11T22:26:05;3.80;;;2.60;;
36629;SDS011;36256;42.154;23.002;2022-12-11T22:28:32;3.63;;;2.45;;
36629;SDS011;36256;42.154;23.002;2022-12-11T22:30:59;6.43;;;2.92;;
36629;SDS011;36256;42.154;23.002;2022-12-11T22:33:26;3.97;;;2.72;;
36629;SDS011;36256;42.154;23.002;2022-12-11T22:35:56;3.95;;;2.10;;
36629;SDS011;36256;42.154;23.002;2022-12-11T22:38:24;5.10;;;3.30;;
36629;SDS011;36256;42.154;23.002;2022-12-11T22:40:51;6.05;;;3.30;;
36629;SDS011;36256;42.154;23.002;2022-12-11T22:43:19;5.47;;;3.13;;
36629;SDS011;36256;42.154;23.002;2022-12-11T22:45:46;6.90;;;3.30;;
36629;SDS011;36256;42.154;23.002;2022-12-11T22:48:13;8.65;;;3.28;;
36629;SDS011;36256;42.154;23.002;2022-12-11T22:50:40;5.18;;;2.50;;
36629;SDS011;36256;42.154;23.002;2022-12-11T22:55:36;6.28;;;2.40;;
36629;SDS011;36256;42.154;23.002;2022-12-11T22:58:04;3.70;;;2.35;;
36629;SDS011;36256;42.154;23.002;2022-12-11T23:00:31;2.83;;;2.22;;
36629;SDS011;36256;42.154;23.002;2022-12-11T23:02:58;4.05;;;2.40;;
36629;SDS011;36256;42.154;23.002;2022-12-11T23:05:25;7.15;;;2.63;;
36629;SDS011;36256;42.154;23.002;2022-12-11T23:07:51;4.00;;;2.80;;
36629;SDS011;36256;42.154;23.002;2022-12-11T23:10:18;3.90;;;2.75;;
36629;SDS011;36256;42.154;23.002;2022-12-11T23:12:45;6.85;;;3.40;;
36629;SDS011;36256;42.154;23.002;2022-12-11T23:15:11;5.20;;;3.70;;
36629;SDS011;36256;42.154;23.002;2022-12-11T23:17:38;6.10;;;3.95;;
36629;SDS011;36256;42.154;23.002;2022-12-11T23:20:05;5.75;;;4.10;;
36629;SDS011;36256;42.154;23.002;2022-12-11T23:22:32;6.90;;;4.07;;
36629;SDS011;36256;42.154;23.002;2022-12-11T23:24:59;6.45;;;3.17;;
36629;SDS011;36256;42.154;23.002;2022-12-11T23:27:25;5.47;;;3.40;;
36629;SDS011;36256;42.154;23.002;2022-12-11T23:29:52;5.35;;;3.38;;
36629;SDS011;36256;42.154;23.002;2022-12-11T23:32:18;6.97;;;3.50;;
36629;SDS011;36256;42.154;23.002;2022-12-11T23:34:45;5.55;;;3.25;;
36629;SDS011;36256;42.154;23.002;2022-12-11T23:37:12;6.30;;;4.10;;
36629;SDS011;36256;42.154;23.002;2022-12-11T23:39:38;7.68;;;4.38;;
36629;SDS011;36256;42.154;23.002;2022-12-11T23:42:05;5.93;;;3.30;;
36629;SDS011;36256;42.154;23.002;2022-12-11T23:44:31;6.60;;;3.23;;
36629;SDS011;36256;42.154;23.002;2022-12-11T23:46:58;6.40;;;2.87;;
36629;SDS011;36256;42.154;23.002;2022-12-11T23:49:24;5.43;;;3.23;;
36629;SDS011;36256;42.154;23.002;2022-12-11T23:51:51;4.07;;;2.88;;
36629;SDS011;36256;42.154;23.002;2022-12-11T23:54:17;4.22;;;2.67;;
36629;SDS011;36256;42.154;23.002;2022-12-11T23:56:44;9.57;;;3.00;;
36629;SDS011;36256;42.154;23.002;2022-12-11T23:59:11;4.15;;;2.70;;
